메인 페이지
METAR-TAF:

METAR-TAF

공항 :

마르델플라타, 아르헨티나

위도: 37-56S, 경도: 057-35W, 고도: 18m

현재 날씨관측

예보는 37분 전, 18:00시(UTC)에 발표되었습니다.
북서20kt
온도 14°C
습도 47%
기압 1007 hPa
시정 10km 이상
1500m 미만 상공 구름 및 적란운 없음

METAR: SAZM 221800Z 32020KT CAVOK 14/03 Q1007

시각: 15:37 (18:37 UTC)

예보

예보는 1 시간 37분 전, 17:00시(UTC)에 발표되었습니다.
예보 대상 시간: 22일 18시부터 23일 18시까지 (UTC)
북서20kt
전환 중
23일 09시부터 23일 12시까지 (UTC)
서남서20kt, 순간 최대 풍속 25kt
시정 10km 이상
고도 3500ft 상공 구름 조금, 타워링 적운.
고도 6000ft 상공 구름 많음
일시적
23일 15시부터 23일 18시까지 (UTC)
시정: 5000m
고도 4000ft 상공 구름 조금, 적란운.
고도 5000ft 상공 흐림
뇌우, 비

TAF: SAZM 221700Z 2218/2318 32020KT CAVO TX13/2318Z TN05/2310Z BECMG 2309/2312 25020G25KT 9999 FEW035TCU BKN060 PRO40 TEMPO 2315/2318 5000 TSRA FEW040CB OVC050

4,000개 이상의 공항 관측 자료 및 예보 (METAR 및 TAF 보고).

지도상에서 검색 가능한 기상관측소가 노란 점과 빨간 점으로 표시되어 있습니다.

기상관측소 명을 보려면 표시 위로 마우스를 이동하세요.

날씨 관측과 예보를 보려면 클릭하세요.

지도 변경 : 확대하려면 엑스 표시가 있는 녹색 버튼, 축소하려면 빼기 표시가 있는 녹색 버튼, 다음 페이지의 지도를 보려면 녹색 화살표를 클릭하세요.


METAR-TAF: